createdAt,value
2019-02-01T00:01:46.659Z,100.00
2019-02-01T00:06:50.713Z,100.00
2019-02-01T00:11:54.756Z,100.00
2019-02-01T00:16:59.174Z,100.00
2019-02-01T00:22:04.690Z,100.00
2019-02-01T00:27:09.042Z,100.00
2019-02-01T00:32:13.015Z,100.00
2019-02-01T00:37:17.088Z,100.00
2019-02-01T00:42:21.172Z,100.00
2019-02-01T00:47:26.078Z,100.00
2019-02-01T00:52:30.421Z,100.00
2019-02-01T00:57:34.788Z,100.00
2019-02-01T01:02:38.919Z,100.00
2019-02-01T01:07:43.084Z,100.00
2019-02-01T01:12:47.092Z,100.00
2019-02-01T01:17:51.168Z,100.00
2019-02-01T01:22:55.437Z,100.00
2019-02-01T01:27:59.533Z,100.00
2019-02-01T01:33:03.767Z,100.00
2019-02-01T01:38:07.942Z,100.00
2019-02-01T01:43:11.968Z,100.00
2019-02-01T01:48:16.149Z,100.00
2019-02-01T01:53:20.293Z,100.00
2019-02-01T01:58:24.457Z,100.00
2019-02-01T02:03:29.077Z,100.00
2019-02-01T02:08:33.193Z,100.00
2019-02-01T02:13:37.268Z,100.00
2019-02-01T02:18:46.844Z,100.00
2019-02-01T02:23:47.264Z,100.00
2019-02-01T02:28:51.627Z,100.00
2019-02-01T02:33:55.671Z,100.00
2019-02-01T02:38:59.672Z,100.00
2019-02-01T02:44:04.064Z,100.00
2019-02-01T02:49:08.533Z,100.00
2019-02-01T02:54:12.574Z,100.00
2019-02-01T02:59:16.631Z,100.00
2019-02-01T03:04:20.695Z,100.00
2019-02-01T03:09:26.373Z,100.00
2019-02-01T03:14:30.379Z,100.00
2019-02-01T03:19:34.500Z,100.00
2019-02-01T03:24:38.839Z,100.00
2019-02-01T03:29:45.521Z,100.00
2019-02-01T03:34:48.768Z,100.00
2019-02-01T03:39:52.806Z,100.00
2019-02-01T03:44:56.929Z,100.00
2019-02-01T03:50:00.930Z,100.00
2019-02-01T03:55:05.726Z,100.00
2019-02-01T04:00:20.797Z,100.00
2019-02-01T04:05:24.822Z,100.00
2019-02-01T04:10:28.920Z,100.00
2019-02-01T04:15:33.744Z,100.00
2019-02-01T04:20:38.035Z,100.00
2019-02-01T04:25:42.109Z,100.00
2019-02-01T04:30:46.197Z,100.00
2019-02-01T04:35:50.219Z,100.00
2019-02-01T04:40:54.278Z,100.00
2019-02-01T04:45:58.306Z,100.00
2019-02-01T04:51:02.326Z,100.00
2019-02-01T04:56:06.418Z,100.00
2019-02-01T05:01:10.557Z,100.00
2019-02-01T05:06:14.591Z,100.00
2019-02-01T05:11:18.648Z,100.00
2019-02-01T05:16:22.677Z,100.00
2019-02-01T05:21:26.805Z,100.00
2019-02-01T05:26:30.908Z,100.00
2019-02-01T05:31:35.281Z,100.00
2019-02-01T05:36:39.360Z,100.00
2019-02-01T05:41:43.405Z,100.00
2019-02-01T05:46:47.442Z,100.00
2019-02-01T05:51:51.539Z,100.00
2019-02-01T05:56:55.667Z,100.00
2019-02-01T06:01:59.713Z,100.00
2019-02-01T06:07:03.899Z,100.00
2019-02-01T06:12:08.268Z,100.00
2019-02-01T06:17:12.359Z,100.00
2019-02-01T06:22:19.346Z,100.00
2019-02-01T06:27:23.725Z,100.00
2019-02-01T06:32:27.907Z,100.00
2019-02-01T06:37:32.210Z,100.00
2019-02-01T06:42:36.366Z,100.00
2019-02-01T06:47:40.328Z,100.00
2019-02-01T06:52:44.457Z,100.00
2019-02-01T06:57:48.569Z,100.00
2019-02-01T07:02:52.586Z,100.00
2019-02-01T07:08:14.304Z,100.00
2019-02-01T07:13:18.401Z,100.00
2019-02-01T07:18:22.440Z,100.00
2019-02-01T07:23:26.984Z,100.00
2019-02-01T07:28:31.014Z,100.00
2019-02-01T07:33:35.100Z,100.00
2019-02-01T07:38:39.181Z,100.00
2019-02-01T07:43:43.343Z,99.84
2019-02-01T07:48:47.753Z,99.08
2019-02-01T07:53:51.843Z,98.27
2019-02-01T07:58:56.028Z,97.99
2019-02-01T08:04:00.072Z,97.16
2019-02-01T08:09:07.316Z,96.54
2019-02-01T08:14:11.400Z,96.16
2019-02-01T08:19:15.474Z,94.80
2019-02-01T08:24:19.479Z,94.63
2019-02-01T08:29:23.561Z,94.74
2019-02-01T08:34:27.627Z,93.05
2019-02-01T08:39:31.709Z,92.71
2019-02-01T08:44:35.768Z,91.56
2019-02-01T08:49:39.821Z,91.47
2019-02-01T08:54:43.890Z,90.77
2019-02-01T08:59:47.967Z,91.29
2019-02-01T09:04:51.982Z,89.63
2019-02-01T09:09:56.031Z,88.65
2019-02-01T09:15:00.096Z,88.26
2019-02-01T09:20:05.388Z,86.51
2019-02-01T09:25:09.528Z,86.09
2019-02-01T09:30:15.966Z,85.73
2019-02-01T09:35:20.052Z,85.84
2019-02-01T09:40:25.372Z,86.21
2019-02-01T09:45:29.508Z,85.38
2019-02-01T09:50:33.616Z,84.59
2019-02-01T09:55:37.645Z,84.25
2019-02-01T10:00:42.406Z,83.98
2019-02-01T10:05:46.491Z,83.42
2019-02-01T10:10:50.578Z,83.62
2019-02-01T10:15:54.913Z,83.42
2019-02-01T10:20:59.337Z,84.38
2019-02-01T10:26:03.506Z,84.96
2019-02-01T10:31:07.648Z,84.28
2019-02-01T10:36:11.705Z,83.87
2019-02-01T10:41:15.765Z,83.21
2019-02-01T10:46:20.105Z,83.25
2019-02-01T10:51:24.170Z,83.40
2019-02-01T10:56:28.222Z,82.62
2019-02-01T11:01:32.314Z,82.07
2019-02-01T11:06:36.713Z,80.80
2019-02-01T11:11:40.800Z,79.50
2019-02-01T11:16:45.017Z,80.35
2019-02-01T11:21:49.332Z,80.94
2019-02-01T11:26:53.477Z,79.60
2019-02-01T11:31:57.660Z,78.55
2019-02-01T11:37:01.707Z,77.99
2019-02-01T11:42:05.845Z,78.00
2019-02-01T11:47:09.933Z,78.47
2019-02-01T11:52:13.992Z,78.81
2019-02-01T11:57:18.075Z,78.49
2019-02-01T12:02:22.484Z,78.44
2019-02-01T12:07:26.759Z,78.64
2019-02-01T12:12:30.798Z,78.70
2019-02-01T12:17:34.871Z,76.98
2019-02-01T12:22:38.990Z,75.22
2019-02-01T12:27:43.090Z,74.36
2019-02-01T12:32:47.519Z,74.17
2019-02-01T12:37:52.459Z,74.07
2019-02-01T12:42:56.715Z,74.23
2019-02-01T12:48:00.965Z,74.12
2019-02-01T12:53:12.248Z,74.05
2019-02-01T12:58:11.199Z,73.12
2019-02-01T13:03:15.493Z,72.72
2019-02-01T13:08:19.521Z,73.20
2019-02-01T13:13:23.593Z,72.75
2019-02-01T13:18:27.573Z,73.25
2019-02-01T13:23:31.571Z,72.62
2019-02-01T13:28:35.592Z,73.09
2019-02-01T13:33:39.637Z,72.88
2019-02-01T13:38:43.670Z,72.98
2019-02-01T13:43:47.690Z,72.40
2019-02-01T13:48:51.730Z,72.62
2019-02-01T13:53:55.734Z,72.84
2019-02-01T13:58:59.742Z,72.60
2019-02-01T14:04:03.946Z,72.64
2019-02-01T14:09:10.034Z,72.94
2019-02-01T14:14:14.064Z,72.78
2019-02-01T14:19:18.084Z,73.27
2019-02-01T14:24:25.665Z,72.77
2019-02-01T14:29:27.824Z,72.39
2019-02-01T14:34:31.801Z,72.37
2019-02-01T14:39:35.897Z,73.18
2019-02-01T14:44:39.987Z,73.36
2019-02-01T14:49:44.008Z,73.71
2019-02-01T14:54:48.054Z,73.15
2019-02-01T14:59:52.184Z,73.56
2019-02-01T15:04:56.272Z,74.69
2019-02-01T15:10:00.305Z,74.39
2019-02-01T15:15:05.135Z,75.67
2019-02-01T15:20:12.726Z,75.43
2019-02-01T15:25:16.845Z,75.48
2019-02-01T15:30:21.768Z,75.73
2019-02-01T15:35:25.781Z,76.51
2019-02-01T15:40:30.474Z,76.75
2019-02-01T15:45:34.474Z,77.43
2019-02-01T15:50:38.504Z,77.69
2019-02-01T15:55:42.534Z,77.60
2019-02-01T16:00:46.562Z,78.19
2019-02-01T16:05:50.871Z,79.49
2019-02-01T16:10:54.875Z,81.23
2019-02-01T16:15:58.965Z,82.80
2019-02-01T16:21:03.100Z,84.44
2019-02-01T16:26:07.121Z,85.91
2019-02-01T16:31:11.142Z,85.61
2019-02-01T16:36:15.178Z,85.95
2019-02-01T16:41:19.177Z,86.05
2019-02-01T16:46:23.262Z,86.28
2019-02-01T16:51:27.283Z,86.67
2019-02-01T16:56:31.347Z,86.53
2019-02-01T17:01:35.543Z,86.36
2019-02-01T17:06:39.544Z,86.46
2019-02-01T17:11:43.870Z,86.66
2019-02-01T17:16:47.941Z,86.22
2019-02-01T17:21:51.980Z,86.33
2019-02-01T17:26:56.043Z,86.32
2019-02-01T17:32:00.067Z,86.30
2019-02-01T17:37:04.110Z,86.19
2019-02-01T17:42:08.273Z,85.63
2019-02-01T17:47:14.576Z,85.50
2019-02-01T17:52:18.059Z,84.93
2019-02-01T17:57:22.049Z,85.17
2019-02-01T18:02:26.092Z,85.30
2019-02-01T18:07:30.154Z,85.77
2019-02-01T18:12:34.147Z,86.01
2019-02-01T18:17:38.256Z,87.48
2019-02-01T18:22:42.336Z,87.91
2019-02-01T18:27:46.339Z,88.34
2019-02-01T18:32:50.360Z,89.57
2019-02-01T18:37:54.321Z,89.84
2019-02-01T18:42:58.326Z,89.75
2019-02-01T18:48:02.379Z,89.44
2019-02-01T18:53:07.118Z,89.47
2019-02-01T18:58:12.438Z,88.46
2019-02-01T19:03:17.848Z,87.34
2019-02-01T19:08:23.104Z,86.64
2019-02-01T19:13:32.163Z,85.86
2019-02-01T19:18:37.699Z,86.00
2019-02-01T19:23:41.995Z,85.04
2019-02-01T19:28:51.665Z,85.07
2019-02-01T19:34:00.330Z,85.35
2019-02-01T19:39:10.487Z,85.97
2019-02-01T19:44:19.873Z,86.01
2019-02-01T19:49:26.086Z,86.31
2019-02-01T19:54:30.158Z,86.26
2019-02-01T19:59:34.178Z,85.95
2019-02-01T20:04:45.494Z,85.70
2019-02-01T20:09:50.112Z,85.20
2019-02-01T20:14:54.251Z,85.80
2019-02-01T20:19:58.292Z,85.99
2019-02-01T20:25:04.505Z,86.59
2019-02-01T20:30:22.640Z,86.47
2019-02-01T20:35:24.009Z,86.63
2019-02-01T20:40:34.199Z,86.48
2019-02-01T20:45:39.887Z,86.80
2019-02-01T20:50:46.288Z,87.30
2019-02-01T20:55:51.208Z,87.76
2019-02-01T21:00:55.267Z,88.08
2019-02-01T21:05:59.578Z,88.61
2019-02-01T21:11:03.688Z,88.49
2019-02-01T21:16:07.741Z,88.72
2019-02-01T21:21:11.709Z,89.13
2019-02-01T21:26:15.738Z,89.53
2019-02-01T21:31:20.048Z,89.59
2019-02-01T21:36:24.046Z,89.91
2019-02-01T21:41:28.094Z,90.13
2019-02-01T21:46:32.236Z,90.20
2019-02-01T21:51:36.351Z,89.95
2019-02-01T21:56:43.035Z,89.88
2019-02-01T22:01:46.427Z,89.77
2019-02-01T22:06:50.526Z,89.56
2019-02-01T22:11:54.965Z,89.08
2019-02-01T22:16:59.047Z,89.46
2019-02-01T22:22:03.118Z,89.75
2019-02-01T22:27:07.757Z,89.65
2019-02-01T22:32:11.873Z,89.92
2019-02-01T22:37:16.243Z,89.77
2019-02-01T22:42:20.371Z,89.88
2019-02-01T22:47:24.729Z,88.98
2019-02-01T22:52:28.797Z,88.77
2019-02-01T22:57:32.886Z,87.97
2019-02-01T23:02:39.368Z,87.80
2019-02-01T23:07:43.677Z,87.49
2019-02-01T23:12:47.776Z,87.95
2019-02-01T23:17:52.169Z,88.37
2019-02-01T23:22:56.312Z,88.69
2019-02-01T23:28:00.295Z,88.63
2019-02-01T23:33:04.847Z,88.80
2019-02-01T23:38:09.179Z,89.11
2019-02-01T23:43:13.367Z,89.65
2019-02-01T23:48:17.428Z,90.14
2019-02-01T23:53:21.486Z,91.20
2019-02-01T23:58:25.582Z,92.40
